createdAt,value
2018-10-03T00:00:05.444Z,2.10
2018-10-03T00:02:35.041Z,1.80
2018-10-03T00:05:04.667Z,1.67
2018-10-03T00:07:34.328Z,2.47
2018-10-03T00:10:04.009Z,1.60
2018-10-03T00:12:33.592Z,2.03
2018-10-03T00:15:03.199Z,2.30
2018-10-03T00:17:32.791Z,1.77
2018-10-03T00:20:02.657Z,2.00
2018-10-03T00:22:32.295Z,1.70
2018-10-03T00:25:01.893Z,1.60
2018-10-03T00:27:31.508Z,1.93
2018-10-03T00:30:01.112Z,1.60
2018-10-03T00:32:30.693Z,1.43
2018-10-03T00:35:00.291Z,1.67
2018-10-03T00:37:29.894Z,2.23
2018-10-03T00:39:59.589Z,1.80
2018-10-03T00:42:29.201Z,1.70
2018-10-03T00:44:58.844Z,1.97
2018-10-03T00:47:28.476Z,1.67
2018-10-03T00:49:58.080Z,1.70
2018-10-03T00:52:27.664Z,1.53
2018-10-03T00:54:57.280Z,1.43
2018-10-03T00:57:26.879Z,1.50
2018-10-03T00:59:56.458Z,1.47
2018-10-03T01:02:26.112Z,1.83
2018-10-03T01:04:55.712Z,2.07
2018-10-03T01:07:25.312Z,2.57
2018-10-03T01:09:54.951Z,2.50
2018-10-03T01:12:24.596Z,2.30
2018-10-03T01:14:54.199Z,2.57
2018-10-03T01:17:23.827Z,2.50
2018-10-03T01:19:53.455Z,2.63
2018-10-03T01:22:23.051Z,3.30
2018-10-03T01:24:52.671Z,3.70
2018-10-03T01:27:22.286Z,3.50
2018-10-03T01:29:51.927Z,3.30
2018-10-03T01:32:21.544Z,3.93
2018-10-03T01:34:51.154Z,4.43
2018-10-03T01:37:20.768Z,4.03
2018-10-03T01:39:50.361Z,4.20
2018-10-03T01:42:19.963Z,5.00
2018-10-03T01:44:49.630Z,4.63
2018-10-03T01:47:19.222Z,5.03
2018-10-03T01:49:48.836Z,5.13
2018-10-03T01:52:18.461Z,4.20
2018-10-03T01:54:48.056Z,4.93
2018-10-03T01:57:17.755Z,4.50
2018-10-03T01:59:47.356Z,4.03
2018-10-03T02:02:16.955Z,4.50
2018-10-03T02:04:46.591Z,4.70
2018-10-03T02:07:16.187Z,3.93
2018-10-03T02:09:45.787Z,4.70
2018-10-03T02:12:15.399Z,3.40
2018-10-03T02:14:45.079Z,3.80
2018-10-03T02:17:14.665Z,3.80
2018-10-03T02:19:44.259Z,3.67
2018-10-03T02:22:13.868Z,2.83
2018-10-03T02:24:43.452Z,3.00
2018-10-03T02:27:13.071Z,3.43
2018-10-03T02:29:42.679Z,3.30
2018-10-03T02:32:12.280Z,2.73
2018-10-03T02:34:41.912Z,3.03
2018-10-03T02:37:11.679Z,3.13
2018-10-03T02:39:41.316Z,3.20
2018-10-03T02:42:10.927Z,3.80
2018-10-03T02:44:40.532Z,3.67
2018-10-03T02:47:10.131Z,3.97
2018-10-03T02:49:39.988Z,3.60
2018-10-03T02:52:09.630Z,3.40
2018-10-03T02:54:39.244Z,3.60
2018-10-03T02:57:08.848Z,4.13
2018-10-03T02:59:38.458Z,3.30
2018-10-03T03:02:08.389Z,3.20
2018-10-03T03:04:38.008Z,3.13
2018-10-03T03:07:07.620Z,3.00
2018-10-03T03:09:37.260Z,3.07
2018-10-03T03:12:07.041Z,2.80
2018-10-03T03:14:36.783Z,2.70
2018-10-03T03:17:06.611Z,3.20
2018-10-03T03:19:36.272Z,3.40
2018-10-03T03:22:05.938Z,2.73
2018-10-03T03:24:35.559Z,2.57
2018-10-03T03:27:05.178Z,2.37
2018-10-03T03:29:34.841Z,2.47
2018-10-03T03:32:04.448Z,1.83
2018-10-03T03:34:34.092Z,1.73
2018-10-03T03:37:03.691Z,2.10
2018-10-03T03:39:33.297Z,2.03
2018-10-03T03:42:02.891Z,2.13
2018-10-03T03:44:32.506Z,1.47
2018-10-03T03:47:02.104Z,1.77
2018-10-03T03:49:31.727Z,1.97
2018-10-03T03:52:01.323Z,1.83
2018-10-03T03:54:30.944Z,1.60
2018-10-03T03:57:00.554Z,1.63
2018-10-03T03:59:30.235Z,1.10
2018-10-03T04:01:59.811Z,1.67
2018-10-03T04:04:29.483Z,1.53
2018-10-03T04:06:59.089Z,1.10
2018-10-03T04:09:28.696Z,1.37
2018-10-03T04:11:58.339Z,1.10
2018-10-03T04:14:27.926Z,1.10
2018-10-03T04:16:57.534Z,1.27
2018-10-03T04:19:27.862Z,0.93
2018-10-03T04:21:57.756Z,1.10
2018-10-03T04:24:27.426Z,0.93
2018-10-03T04:26:57.051Z,1.30
2018-10-03T04:29:26.657Z,0.90
2018-10-03T04:31:56.263Z,1.10
2018-10-03T04:34:25.871Z,0.83
2018-10-03T04:36:55.546Z,1.00
2018-10-03T04:39:25.157Z,0.80
2018-10-03T04:41:54.788Z,0.60
2018-10-03T04:44:24.408Z,0.60
2018-10-03T04:46:54.007Z,0.50
2018-10-03T04:49:23.620Z,0.50
2018-10-03T04:51:53.253Z,0.30
2018-10-03T04:54:22.864Z,0.43
2018-10-03T04:56:52.494Z,0.60
2018-10-03T04:59:22.116Z,0.50
2018-10-03T05:01:51.712Z,0.57
2018-10-03T05:04:21.331Z,0.53
2018-10-03T05:06:50.939Z,0.50
2018-10-03T05:09:20.528Z,0.73
2018-10-03T05:11:50.130Z,0.60
2018-10-03T05:14:19.737Z,0.80
2018-10-03T05:16:49.334Z,0.97
2018-10-03T05:19:18.975Z,0.70
2018-10-03T05:21:48.568Z,0.73
2018-10-03T05:24:18.159Z,1.30
2018-10-03T05:26:47.774Z,1.03
2018-10-03T05:29:17.354Z,0.70
2018-10-03T05:31:46.996Z,0.97
2018-10-03T05:34:16.660Z,1.10
2018-10-03T05:36:46.284Z,1.40
2018-10-03T05:39:15.881Z,1.10
2018-10-03T05:41:45.505Z,1.90
2018-10-03T05:44:15.096Z,1.13
2018-10-03T05:46:44.693Z,1.20
2018-10-03T05:49:14.332Z,0.90
2018-10-03T05:51:43.932Z,1.40
2018-10-03T05:54:13.591Z,1.00
2018-10-03T05:56:43.188Z,1.40
2018-10-03T05:59:12.776Z,0.97
2018-10-03T06:01:42.380Z,1.10
2018-10-03T06:04:11.972Z,1.10
2018-10-03T06:06:41.572Z,1.00
2018-10-03T06:09:12.535Z,1.20
2018-10-03T06:11:43.047Z,1.67
2018-10-03T06:14:12.988Z,1.30
2018-10-03T06:16:42.571Z,1.20
2018-10-03T06:19:12.185Z,1.40
2018-10-03T06:21:41.854Z,1.00
2018-10-03T06:24:11.520Z,0.90
2018-10-03T06:26:41.102Z,1.30
2018-10-03T06:29:10.751Z,1.17
2018-10-03T06:31:40.343Z,1.20
2018-10-03T06:34:09.936Z,1.13
2018-10-03T06:36:39.546Z,1.20
2018-10-03T06:39:10.183Z,1.73
2018-10-03T06:41:41.209Z,1.10
2018-10-03T06:44:11.439Z,1.20
2018-10-03T06:46:41.036Z,1.30
2018-10-03T06:49:10.644Z,0.90
2018-10-03T06:51:40.250Z,1.33
2018-10-03T06:54:09.849Z,1.27
2018-10-03T06:56:39.433Z,0.90
2018-10-03T06:59:09.073Z,1.40
2018-10-03T07:01:38.658Z,1.47
2018-10-03T07:04:08.318Z,1.50
2018-10-03T07:06:37.983Z,1.27
2018-10-03T07:09:08.487Z,1.40
2018-10-03T07:11:38.207Z,1.23
2018-10-03T07:14:07.880Z,0.80
2018-10-03T07:16:37.456Z,1.00
2018-10-03T07:19:07.232Z,1.00
2018-10-03T07:21:36.824Z,1.30
2018-10-03T07:24:06.435Z,1.17
2018-10-03T07:26:36.016Z,1.07
2018-10-03T07:29:05.651Z,1.00
2018-10-03T07:31:35.253Z,0.73
2018-10-03T07:34:04.840Z,1.13
2018-10-03T07:36:34.483Z,1.00
2018-10-03T07:39:05.080Z,1.00
2018-10-03T07:41:34.678Z,1.70
2018-10-03T07:44:04.397Z,0.70
2018-10-03T07:46:33.996Z,0.93
2018-10-03T07:49:03.602Z,0.60
2018-10-03T07:51:33.212Z,0.83
2018-10-03T07:54:02.816Z,1.07
2018-10-03T07:56:32.433Z,0.70
2018-10-03T07:59:02.105Z,0.60
2018-10-03T08:01:31.752Z,0.97
2018-10-03T08:04:01.331Z,0.60
2018-10-03T08:06:30.923Z,0.60
2018-10-03T08:09:00.527Z,0.40
2018-10-03T08:11:30.135Z,0.60
2018-10-03T08:13:59.702Z,0.60
2018-10-03T08:16:29.299Z,0.80
2018-10-03T08:18:58.903Z,0.60
2018-10-03T08:21:28.502Z,0.60
2018-10-03T08:23:58.138Z,0.70
2018-10-03T08:26:27.728Z,0.80
2018-10-03T08:28:57.316Z,0.63
2018-10-03T08:31:26.932Z,0.60
2018-10-03T08:33:56.556Z,0.60
2018-10-03T08:36:26.167Z,0.60
2018-10-03T08:38:55.776Z,0.43
2018-10-03T08:41:25.385Z,0.43
2018-10-03T08:43:54.980Z,0.60
2018-10-03T08:46:24.563Z,0.50
2018-10-03T08:48:54.189Z,0.50
2018-10-03T08:51:23.809Z,0.50
2018-10-03T08:53:53.416Z,1.57
2018-10-03T08:56:23.006Z,0.70
2018-10-03T08:58:52.604Z,0.50
2018-10-03T09:01:22.276Z,0.30
2018-10-03T09:03:51.916Z,0.40
2018-10-03T09:06:21.528Z,0.50
2018-10-03T09:08:51.148Z,0.40
2018-10-03T09:11:20.748Z,0.50
2018-10-03T09:13:50.350Z,0.63
2018-10-03T09:16:19.938Z,0.60
2018-10-03T09:18:49.513Z,0.27
2018-10-03T09:21:19.128Z,0.43
2018-10-03T09:23:48.744Z,0.47
2018-10-03T09:26:18.324Z,0.57
2018-10-03T09:28:47.947Z,0.60
2018-10-03T09:31:17.640Z,0.30
2018-10-03T09:33:47.255Z,0.53
2018-10-03T09:36:17.186Z,0.50
2018-10-03T09:38:46.897Z,0.47
2018-10-03T09:41:16.596Z,0.50
2018-10-03T09:43:46.338Z,0.40
2018-10-03T09:46:15.930Z,0.40
2018-10-03T09:48:45.552Z,0.70
2018-10-03T09:51:15.171Z,0.60
2018-10-03T09:53:44.747Z,0.50
2018-10-03T09:56:14.343Z,0.50
2018-10-03T09:58:43.948Z,0.70
2018-10-03T10:01:14.832Z,0.37
2018-10-03T10:03:44.447Z,0.60
2018-10-03T10:06:14.035Z,0.70
2018-10-03T10:08:43.647Z,0.50
2018-10-03T10:11:13.324Z,0.53
2018-10-03T10:13:43.107Z,0.50
2018-10-03T10:16:12.688Z,0.63
2018-10-03T10:18:42.282Z,0.53
2018-10-03T10:21:12.091Z,0.53
2018-10-03T10:23:41.691Z,0.50
2018-10-03T10:26:11.367Z,0.60
2018-10-03T10:28:41.047Z,0.47
2018-10-03T10:31:10.724Z,0.33
2018-10-03T10:33:40.332Z,0.40
2018-10-03T10:36:09.907Z,0.60
2018-10-03T10:38:39.510Z,0.60
2018-10-03T10:41:09.241Z,0.50
2018-10-03T10:43:38.760Z,0.67
2018-10-03T10:46:08.666Z,0.40
2018-10-03T10:48:38.279Z,0.40
2018-10-03T10:51:07.888Z,0.80
2018-10-03T10:53:37.464Z,0.73
2018-10-03T10:56:07.068Z,0.60
2018-10-03T10:58:36.664Z,0.50
2018-10-03T11:01:06.276Z,0.47
2018-10-03T11:03:35.860Z,0.50
2018-10-03T11:06:05.809Z,0.50
2018-10-03T11:08:35.384Z,0.33
2018-10-03T11:11:05.017Z,0.60
2018-10-03T11:13:34.638Z,0.60
2018-10-03T11:16:04.256Z,0.57
2018-10-03T11:18:33.884Z,0.50
2018-10-03T11:21:03.480Z,0.50
2018-10-03T11:23:33.141Z,0.60
2018-10-03T11:26:02.708Z,0.50
2018-10-03T11:28:32.295Z,2.40
2018-10-03T11:31:01.912Z,2.70
2018-10-03T11:33:31.528Z,1.83
2018-10-03T11:36:01.145Z,2.40
2018-10-03T11:38:30.726Z,2.00
2018-10-03T11:41:00.347Z,2.23
2018-10-03T11:43:30.023Z,1.43
2018-10-03T11:45:59.611Z,10.03
2018-10-03T11:48:29.222Z,1.43
2018-10-03T11:50:58.817Z,1.03
2018-10-03T11:53:28.420Z,1.00
2018-10-03T11:55:58.022Z,0.57
2018-10-03T11:58:27.640Z,0.60
2018-10-03T12:00:57.260Z,0.53
2018-10-03T12:03:26.989Z,0.63
2018-10-03T12:05:56.565Z,0.60
2018-10-03T12:08:26.183Z,1.20
2018-10-03T12:10:55.782Z,0.67
2018-10-03T12:13:25.390Z,0.90
2018-10-03T12:15:54.988Z,1.10
2018-10-03T12:18:24.635Z,0.80
2018-10-03T12:20:54.239Z,0.80
2018-10-03T12:23:23.840Z,0.70
2018-10-03T12:25:53.444Z,0.50
2018-10-03T12:28:23.208Z,0.50
2018-10-03T12:30:52.787Z,0.50
2018-10-03T12:33:22.407Z,0.70
2018-10-03T12:35:52.003Z,0.40
2018-10-03T12:38:21.596Z,0.50
2018-10-03T12:40:51.211Z,0.50
2018-10-03T12:43:20.846Z,0.70
2018-10-03T12:45:50.443Z,0.60
2018-10-03T12:48:20.115Z,0.70
2018-10-03T12:50:49.775Z,1.00
2018-10-03T12:53:19.376Z,2.60
2018-10-03T12:55:48.959Z,0.70
2018-10-03T12:58:18.574Z,0.67
2018-10-03T13:00:48.192Z,2.53
2018-10-03T13:03:17.818Z,2.13
2018-10-03T13:05:47.403Z,1.00
2018-10-03T13:08:17.063Z,0.60
2018-10-03T13:10:46.718Z,1.43
2018-10-03T13:13:16.337Z,1.40
2018-10-03T13:15:46.184Z,1.00
2018-10-03T13:18:15.816Z,1.33
2018-10-03T13:20:45.408Z,1.20
2018-10-03T13:23:15.027Z,1.73
2018-10-03T13:25:44.646Z,0.80
2018-10-03T13:28:14.284Z,0.73
2018-10-03T13:33:09.165Z,0.90
2018-10-03T13:35:38.785Z,1.00
2018-10-03T13:38:08.417Z,1.70
2018-10-03T13:40:38.020Z,1.40
2018-10-03T13:43:07.647Z,0.87
2018-10-03T13:45:37.244Z,0.70
2018-10-03T13:48:06.871Z,1.43
2018-10-03T13:50:36.467Z,2.37
2018-10-03T13:53:06.072Z,2.10
2018-10-03T13:55:35.660Z,1.30
2018-10-03T13:58:05.288Z,2.70
2018-10-03T14:00:34.928Z,2.97
2018-10-03T14:03:04.558Z,3.80
2018-10-03T14:05:34.146Z,1.73
2018-10-03T14:08:03.731Z,5.87
2018-10-03T14:10:33.487Z,2.30
2018-10-03T14:13:03.109Z,1.70
2018-10-03T14:15:33.001Z,2.67
2018-10-03T14:18:02.652Z,1.30
2018-10-03T14:20:32.275Z,3.17
2018-10-03T14:23:01.869Z,3.47
2018-10-03T14:25:31.481Z,4.00
2018-10-03T14:28:01.084Z,1.47
2018-10-03T14:30:30.667Z,1.10
2018-10-03T14:33:00.305Z,4.20
2018-10-03T14:35:29.949Z,2.97
2018-10-03T14:37:59.564Z,4.50
2018-10-03T14:40:29.184Z,15.23
2018-10-03T14:42:58.807Z,4.53
2018-10-03T14:45:28.396Z,5.97
2018-10-03T14:47:57.986Z,5.83
2018-10-03T14:50:27.608Z,2.37
2018-10-03T14:52:57.203Z,6.87
2018-10-03T14:55:26.793Z,4.63
2018-10-03T14:57:56.551Z,12.93
2018-10-03T15:00:26.195Z,2.30
2018-10-03T15:02:55.799Z,126.20
2018-10-03T15:05:25.507Z,4.77
2018-10-03T15:07:55.147Z,6.17
2018-10-03T15:10:24.816Z,5.63
2018-10-03T15:12:54.474Z,26.63
2018-10-03T15:15:24.083Z,5.23
2018-10-03T15:17:53.708Z,16.20
2018-10-03T15:20:23.360Z,5.67
2018-10-03T15:22:52.988Z,18.83
2018-10-03T15:25:22.689Z,5.63
2018-10-03T15:27:52.403Z,7.53
2018-10-03T15:30:21.991Z,5.40
2018-10-03T15:32:51.608Z,10.37
2018-10-03T15:35:21.238Z,8.17
2018-10-03T15:37:50.920Z,5.10
2018-10-03T15:40:20.527Z,6.27
2018-10-03T15:42:50.156Z,8.37
2018-10-03T15:45:19.823Z,3.50
2018-10-03T15:47:49.411Z,16.77
2018-10-03T15:50:19.012Z,5.97
2018-10-03T15:52:48.625Z,7.10
2018-10-03T15:55:18.251Z,18.37
2018-10-03T15:57:47.865Z,13.17
2018-10-03T16:00:17.520Z,11.37
2018-10-03T16:02:47.148Z,7.03
2018-10-03T16:05:16.780Z,23.13
2018-10-03T16:07:46.386Z,7.60
2018-10-03T16:10:15.998Z,8.63
2018-10-03T16:12:45.615Z,3.20
2018-10-03T16:15:15.210Z,3.73
2018-10-03T16:17:44.787Z,4.93
2018-10-03T16:20:14.434Z,6.07
2018-10-03T16:22:44.028Z,3.80
2018-10-03T16:25:14.327Z,5.37
2018-10-03T16:27:43.955Z,7.20
2018-10-03T16:30:13.574Z,4.23
2018-10-03T16:32:43.234Z,12.73
2018-10-03T16:35:13.604Z,6.70
2018-10-03T16:37:43.208Z,9.23
2018-10-03T16:40:12.818Z,3.93
2018-10-03T16:42:42.415Z,12.03
2018-10-03T16:45:11.985Z,11.50
2018-10-03T16:47:41.599Z,4.77
2018-10-03T16:50:11.201Z,4.10
2018-10-03T16:52:40.794Z,9.30
2018-10-03T16:55:10.416Z,12.77
2018-10-03T16:57:40.030Z,18.97
2018-10-03T17:00:09.691Z,7.33
2018-10-03T17:02:39.315Z,11.00
2018-10-03T17:05:08.932Z,6.13
2018-10-03T17:07:38.524Z,7.80
2018-10-03T17:10:08.205Z,18.83
2018-10-03T17:12:37.800Z,5.57
2018-10-03T17:15:07.478Z,5.67
2018-10-03T17:17:37.161Z,6.93
2018-10-03T17:20:06.795Z,15.77
2018-10-03T17:22:36.412Z,6.50
2018-10-03T17:25:06.089Z,20.93
2018-10-03T17:27:35.744Z,29.63
2018-10-03T17:30:05.425Z,87.10
2018-10-03T17:32:35.043Z,77.63
2018-10-03T17:35:04.682Z,109.73
2018-10-03T17:37:34.363Z,346.63
2018-10-03T17:40:04.004Z,133.47
2018-10-03T17:42:33.611Z,101.73
2018-10-03T17:45:03.258Z,39.23
2018-10-03T17:47:33.202Z,46.13
2018-10-03T17:50:02.806Z,79.57
2018-10-03T17:52:33.223Z,56.13
2018-10-03T17:55:02.840Z,47.00
2018-10-03T17:57:32.476Z,38.20
2018-10-03T18:00:02.085Z,11.87
2018-10-03T18:02:31.736Z,14.57
2018-10-03T18:05:01.373Z,17.20
2018-10-03T18:07:30.981Z,26.70
2018-10-03T18:10:00.575Z,18.23
2018-10-03T18:12:30.241Z,35.50
2018-10-03T18:14:59.853Z,25.07
2018-10-03T18:17:29.448Z,10.13
2018-10-03T18:19:59.103Z,13.23
2018-10-03T18:22:29.182Z,22.53
2018-10-03T18:25:00.402Z,12.33
2018-10-03T18:27:30.731Z,20.03
2018-10-03T18:30:01.019Z,42.80
2018-10-03T18:32:31.108Z,19.47
2018-10-03T18:35:01.086Z,11.63
2018-10-03T18:37:31.088Z,21.73
2018-10-03T18:40:01.349Z,17.03
2018-10-03T18:42:32.215Z,17.53
2018-10-03T18:45:04.361Z,32.13
2018-10-03T18:47:34.470Z,29.23
2018-10-03T18:50:04.575Z,11.30
2018-10-03T18:52:34.389Z,11.83
2018-10-03T18:55:04.032Z,27.67
2018-10-03T18:57:33.898Z,15.97
2018-10-03T19:00:03.532Z,54.47
2018-10-03T19:02:33.264Z,23.63
2018-10-03T19:05:02.877Z,67.47
2018-10-03T19:07:32.484Z,34.47
2018-10-03T19:10:02.086Z,98.93
2018-10-03T19:12:31.740Z,52.90
2018-10-03T19:15:01.316Z,22.80
2018-10-03T19:17:30.926Z,51.90
2018-10-03T19:20:00.590Z,21.07
2018-10-03T19:22:30.226Z,24.97
2018-10-03T19:24:59.840Z,33.00
2018-10-03T19:27:29.456Z,30.50
2018-10-03T19:29:59.215Z,38.73
2018-10-03T19:32:28.836Z,37.37
2018-10-03T19:34:58.443Z,23.20
2018-10-03T19:37:28.100Z,10.47
2018-10-03T19:39:57.857Z,9.87
2018-10-03T19:42:27.464Z,15.93
2018-10-03T19:44:57.167Z,18.70
2018-10-03T19:47:26.801Z,58.03
2018-10-03T19:49:56.416Z,13.70
2018-10-03T19:52:26.073Z,11.67
2018-10-03T19:54:55.697Z,7.63
2018-10-03T19:57:25.313Z,8.53
2018-10-03T19:59:54.893Z,13.90
2018-10-03T20:02:24.516Z,64.70
2018-10-03T20:04:54.119Z,10.53
2018-10-03T20:07:23.722Z,9.27
2018-10-03T20:09:53.320Z,9.53
2018-10-03T20:12:22.938Z,13.93
2018-10-03T20:14:52.552Z,13.73
2018-10-03T20:17:22.165Z,10.40
2018-10-03T20:19:51.964Z,16.30
2018-10-03T20:22:21.568Z,13.27
2018-10-03T20:24:51.175Z,10.97
2018-10-03T20:27:20.831Z,18.17
2018-10-03T20:29:50.452Z,7.57
2018-10-03T20:32:20.077Z,13.47
2018-10-03T20:34:49.681Z,10.43
2018-10-03T20:37:19.287Z,11.70
2018-10-03T20:39:48.891Z,24.17
2018-10-03T20:42:18.496Z,29.67
2018-10-03T20:44:48.083Z,8.60
2018-10-03T20:47:17.679Z,5.83
2018-10-03T20:49:47.307Z,6.70
2018-10-03T20:52:16.960Z,5.37
2018-10-03T20:54:46.552Z,4.73
2018-10-03T20:57:16.151Z,4.90
2018-10-03T20:59:45.745Z,8.27
2018-10-03T21:02:15.381Z,7.17
2018-10-03T21:04:44.972Z,5.37
2018-10-03T21:07:14.569Z,6.50
2018-10-03T21:09:44.162Z,4.70
2018-10-03T21:12:13.760Z,4.50
2018-10-03T21:14:43.356Z,5.87
2018-10-03T21:17:12.940Z,4.53
2018-10-03T21:19:42.545Z,4.43
2018-10-03T21:22:12.139Z,5.73
2018-10-03T21:24:41.722Z,6.73
2018-10-03T21:27:11.348Z,4.70
2018-10-03T21:29:40.940Z,3.80
2018-10-03T21:32:10.556Z,2.53
2018-10-03T21:34:40.152Z,2.40
2018-10-03T21:37:09.758Z,3.53
2018-10-03T21:39:39.334Z,2.63
2018-10-03T21:42:08.931Z,2.93
2018-10-03T21:44:38.539Z,3.20
2018-10-03T21:47:08.144Z,2.60
2018-10-03T21:49:37.764Z,3.33
2018-10-03T21:52:07.492Z,2.67
2018-10-03T21:54:37.088Z,2.87
2018-10-03T21:57:06.711Z,3.63
2018-10-03T21:59:36.390Z,3.50
2018-10-03T22:02:05.971Z,1.80
2018-10-03T22:04:35.603Z,1.90
2018-10-03T22:07:05.218Z,1.60
2018-10-03T22:09:34.824Z,1.80
2018-10-03T22:12:04.422Z,1.50
2018-10-03T22:14:34.021Z,2.03
2018-10-03T22:17:03.674Z,2.20
2018-10-03T22:19:33.249Z,2.30
2018-10-03T22:22:02.841Z,1.83
2018-10-03T22:24:32.421Z,1.90
2018-10-03T22:27:02.023Z,1.60
2018-10-03T22:29:31.627Z,2.30
2018-10-03T22:32:01.263Z,1.70
2018-10-03T22:34:30.845Z,2.07
2018-10-03T22:37:00.433Z,2.27
2018-10-03T22:39:30.023Z,1.57
2018-10-03T22:41:59.601Z,1.73
2018-10-03T22:44:29.198Z,2.93
2018-10-03T22:46:58.826Z,3.40
2018-10-03T22:49:28.438Z,2.47
2018-10-03T22:51:58.080Z,4.07
2018-10-03T22:54:27.703Z,4.20
2018-10-03T22:56:57.363Z,3.60
2018-10-03T22:59:27.055Z,3.57
2018-10-03T23:01:56.811Z,2.70
2018-10-03T23:04:26.480Z,2.50
2018-10-03T23:06:56.098Z,1.87
2018-10-03T23:09:25.718Z,2.53
2018-10-03T23:11:55.357Z,2.80
2018-10-03T23:14:24.919Z,2.77
2018-10-03T23:16:54.567Z,2.03
2018-10-03T23:19:24.166Z,2.53
2018-10-03T23:21:53.754Z,2.90
2018-10-03T23:24:23.342Z,2.87
2018-10-03T23:26:52.903Z,3.83
2018-10-03T23:29:22.498Z,2.17
2018-10-03T23:31:52.090Z,2.07
2018-10-03T23:34:21.681Z,2.87
2018-10-03T23:36:51.310Z,3.57
2018-10-03T23:39:20.966Z,2.90
2018-10-03T23:41:50.606Z,3.70
2018-10-03T23:44:20.196Z,3.90
2018-10-03T23:46:49.777Z,3.43
2018-10-03T23:49:19.394Z,4.53
2018-10-03T23:51:48.992Z,3.63
2018-10-03T23:54:18.570Z,3.60
2018-10-03T23:56:48.193Z,4.10
2018-10-03T23:59:17.765Z,2.83
